createdAt,value
2018-10-02T00:00:00.699Z,6.90
2018-10-02T00:02:29.923Z,7.12
2018-10-02T00:04:59.386Z,7.17
2018-10-02T00:07:28.678Z,7.17
2018-10-02T00:09:57.783Z,7.00
2018-10-02T00:12:31.981Z,7.30
2018-10-02T00:15:01.208Z,7.30
2018-10-02T00:17:30.538Z,7.53
2018-10-02T00:19:59.799Z,7.30
2018-10-02T00:22:29.035Z,7.17
2018-10-02T00:24:58.292Z,6.95
2018-10-02T00:27:27.622Z,6.63
2018-10-02T00:29:56.794Z,6.83
2018-10-02T00:32:25.943Z,6.60
2018-10-02T00:34:55.197Z,6.75
2018-10-02T00:37:24.297Z,6.42
2018-10-02T00:39:53.402Z,7.17
2018-10-02T00:42:22.790Z,6.87
2018-10-02T00:44:52.006Z,6.70
2018-10-02T00:47:21.481Z,7.13
2018-10-02T00:49:50.711Z,6.83
2018-10-02T00:52:20.087Z,7.45
2018-10-02T00:54:49.306Z,6.97
2018-10-02T00:57:18.675Z,6.67
2018-10-02T00:59:48.008Z,7.03
2018-10-02T01:02:17.290Z,7.53
2018-10-02T01:04:46.511Z,7.25
2018-10-02T01:07:15.778Z,7.50
2018-10-02T01:09:44.888Z,7.72
2018-10-02T01:12:13.950Z,7.42
2018-10-02T01:14:43.067Z,7.35
2018-10-02T01:17:12.157Z,7.20
2018-10-02T01:19:41.267Z,8.40
2018-10-02T01:22:10.547Z,8.10
2018-10-02T01:24:39.883Z,8.18
2018-10-02T01:27:09.154Z,8.20
2018-10-02T01:29:38.378Z,8.80
2018-10-02T01:32:07.675Z,9.30
2018-10-02T01:34:36.879Z,9.73
2018-10-02T01:37:06.053Z,9.67
2018-10-02T01:39:35.379Z,8.65
2018-10-02T01:42:04.651Z,8.35
2018-10-02T01:44:33.770Z,7.90
2018-10-02T01:47:03.041Z,8.28
2018-10-02T01:49:32.271Z,7.83
2018-10-02T01:52:01.428Z,8.03
2018-10-02T01:54:30.454Z,7.53
2018-10-02T01:56:59.853Z,7.40
2018-10-02T01:59:29.036Z,6.80
2018-10-02T02:01:58.148Z,6.87
2018-10-02T02:04:27.296Z,6.40
2018-10-02T02:06:56.342Z,6.62
2018-10-02T02:09:25.499Z,6.30
2018-10-02T02:11:54.798Z,7.05
2018-10-02T02:14:24.004Z,5.87
2018-10-02T02:16:53.234Z,6.60
2018-10-02T02:19:22.619Z,5.90
2018-10-02T02:21:51.935Z,5.17
2018-10-02T02:24:21.203Z,4.90
2018-10-02T02:26:50.431Z,4.15
2018-10-02T02:29:19.595Z,3.72
2018-10-02T02:31:48.707Z,3.60
2018-10-02T02:34:17.992Z,3.95
2018-10-02T02:36:47.218Z,3.40
2018-10-02T02:39:16.383Z,3.90
2018-10-02T02:41:45.611Z,3.85
2018-10-02T02:44:14.786Z,3.77
2018-10-02T02:46:43.903Z,4.47
2018-10-02T02:49:18.315Z,3.72
2018-10-02T02:51:47.811Z,4.08
2018-10-02T02:54:17.002Z,3.90
2018-10-02T02:56:46.422Z,4.00
2018-10-02T02:59:15.500Z,4.55
2018-10-02T03:01:44.643Z,4.50
2018-10-02T03:04:13.788Z,4.77
2018-10-02T03:06:43.051Z,4.75
2018-10-02T03:09:12.211Z,4.65
2018-10-02T03:11:41.339Z,4.45
2018-10-02T03:14:10.715Z,4.12
2018-10-02T03:16:40.087Z,4.00
2018-10-02T03:19:09.307Z,4.33
2018-10-02T03:21:38.504Z,4.37
2018-10-02T03:24:07.394Z,4.40
2018-10-02T03:26:36.664Z,4.00
2018-10-02T03:29:05.907Z,4.45
2018-10-02T03:31:35.171Z,4.60
2018-10-02T03:34:04.299Z,4.40
2018-10-02T03:36:33.448Z,4.70
2018-10-02T03:39:02.643Z,4.83
2018-10-02T03:41:31.846Z,4.95
2018-10-02T03:44:01.074Z,4.92
2018-10-02T03:46:30.447Z,4.87
2018-10-02T03:48:59.610Z,5.33
2018-10-02T03:51:28.803Z,5.22
2018-10-02T03:53:58.071Z,5.60
2018-10-02T03:56:27.347Z,6.25
2018-10-02T03:58:56.467Z,6.08
2018-10-02T04:01:25.645Z,6.05
2018-10-02T04:03:55.681Z,6.42
2018-10-02T04:06:24.951Z,6.33
2018-10-02T04:08:54.179Z,6.40
2018-10-02T04:11:23.349Z,6.22
2018-10-02T04:13:52.475Z,6.03
2018-10-02T04:16:21.859Z,7.08
2018-10-02T04:18:51.067Z,6.90
2018-10-02T04:21:25.591Z,6.67
2018-10-02T04:23:54.791Z,6.70
2018-10-02T04:26:24.090Z,7.17
2018-10-02T04:28:53.491Z,7.50
2018-10-02T04:31:22.788Z,6.97
2018-10-02T04:33:51.908Z,7.05
2018-10-02T04:36:21.512Z,6.80
2018-10-02T04:38:50.555Z,7.10
2018-10-02T04:41:19.687Z,6.80
2018-10-02T04:43:48.950Z,6.90
2018-10-02T04:46:18.178Z,6.50
2018-10-02T04:48:47.463Z,6.95
2018-10-02T04:51:16.675Z,6.65
2018-10-02T04:53:45.948Z,7.27
2018-10-02T04:56:15.259Z,7.70
2018-10-02T04:58:44.360Z,7.62
2018-10-02T05:01:13.467Z,7.60
2018-10-02T05:03:42.754Z,7.70
2018-10-02T05:06:11.851Z,7.72
2018-10-02T05:08:41.232Z,8.03
2018-10-02T05:11:10.472Z,8.05
2018-10-02T05:13:39.759Z,7.60
2018-10-02T05:16:09.062Z,7.40
2018-10-02T05:18:38.436Z,7.70
2018-10-02T05:21:07.786Z,7.15
2018-10-02T05:23:36.936Z,7.10
2018-10-02T05:26:06.310Z,7.42
2018-10-02T05:28:35.436Z,7.33
2018-10-02T05:31:04.559Z,7.05
2018-10-02T05:33:33.833Z,6.25
2018-10-02T05:36:03.267Z,6.60
2018-10-02T05:38:32.427Z,6.60
2018-10-02T05:41:01.751Z,7.00
2018-10-02T05:43:31.027Z,7.08
2018-10-02T05:46:00.148Z,7.08
2018-10-02T05:48:29.450Z,7.43
2018-10-02T05:50:58.623Z,8.03
2018-10-02T05:53:27.632Z,8.00
2018-10-02T05:55:57.382Z,8.00
2018-10-02T05:58:26.856Z,7.60
2018-10-02T06:00:56.196Z,8.08
2018-10-02T06:03:25.462Z,8.20
2018-10-02T06:05:54.619Z,8.55
2018-10-02T06:08:23.735Z,8.08
2018-10-02T06:10:52.903Z,7.72
2018-10-02T06:13:22.023Z,8.33
2018-10-02T06:15:51.118Z,8.43
2018-10-02T06:18:20.434Z,8.10
2018-10-02T06:20:49.659Z,8.63
2018-10-02T06:23:19.035Z,8.98
2018-10-02T06:25:48.295Z,8.83
2018-10-02T06:28:17.426Z,9.78
2018-10-02T06:30:46.707Z,8.60
2018-10-02T06:33:15.822Z,8.80
2018-10-02T06:35:45.125Z,9.20
2018-10-02T06:38:14.649Z,9.13
2018-10-02T06:40:44.024Z,9.08
2018-10-02T06:43:13.450Z,9.63
2018-10-02T06:45:42.731Z,9.45
2018-10-02T06:48:12.104Z,9.40
2018-10-02T06:50:41.287Z,10.37
2018-10-02T06:53:10.607Z,10.32
2018-10-02T06:55:39.824Z,9.78
2018-10-02T06:58:09.095Z,11.18
2018-10-02T07:00:38.355Z,11.10
2018-10-02T07:03:07.745Z,10.50
2018-10-02T07:05:36.906Z,10.72
2018-10-02T07:08:06.299Z,11.73
2018-10-02T07:10:35.421Z,11.10
2018-10-02T07:13:04.692Z,11.40
2018-10-02T07:15:33.916Z,10.78
2018-10-02T07:18:03.195Z,11.22
2018-10-02T07:20:32.471Z,11.65
2018-10-02T07:23:01.846Z,10.50
2018-10-02T07:25:30.974Z,10.90
2018-10-02T07:28:00.501Z,10.80
2018-10-02T07:30:29.588Z,10.10
2018-10-02T07:32:59.082Z,9.95
2018-10-02T07:35:28.388Z,10.97
2018-10-02T07:37:57.629Z,10.48
2018-10-02T07:40:27.157Z,10.40
2018-10-02T07:42:56.303Z,10.38
2018-10-02T07:45:25.500Z,11.00
2018-10-02T07:47:54.860Z,10.58
2018-10-02T07:50:24.222Z,11.68
2018-10-02T07:52:53.520Z,10.30
2018-10-02T07:55:22.730Z,11.90
2018-10-02T07:57:52.015Z,11.50
2018-10-02T08:00:21.215Z,11.75
2018-10-02T08:02:50.456Z,11.60
2018-10-02T08:05:19.803Z,10.75
2018-10-02T08:07:49.023Z,9.33
2018-10-02T08:10:18.419Z,9.25
2018-10-02T08:12:47.680Z,8.50
2018-10-02T08:15:16.915Z,7.83
2018-10-02T08:17:46.127Z,8.18
2018-10-02T08:20:15.308Z,7.65
2018-10-02T08:22:44.494Z,7.30
2018-10-02T08:25:13.906Z,7.13
2018-10-02T08:27:43.511Z,7.72
2018-10-02T08:30:12.805Z,6.92
2018-10-02T08:32:42.043Z,6.78
2018-10-02T08:35:11.851Z,6.15
2018-10-02T08:37:41.206Z,6.37
2018-10-02T08:40:10.527Z,5.80
2018-10-02T08:42:39.689Z,5.73
2018-10-02T08:45:08.946Z,5.33
2018-10-02T08:47:38.170Z,5.35
2018-10-02T08:50:07.298Z,5.20
2018-10-02T08:52:36.616Z,4.78
2018-10-02T08:55:05.881Z,5.15
2018-10-02T08:57:35.229Z,5.42
2018-10-02T09:00:04.522Z,5.08
2018-10-02T09:02:33.923Z,4.17
2018-10-02T09:05:03.070Z,3.90
2018-10-02T09:07:32.315Z,3.85
2018-10-02T09:10:01.509Z,3.90
2018-10-02T09:12:30.877Z,3.98
2018-10-02T09:14:59.999Z,3.72
2018-10-02T09:17:29.295Z,3.70
2018-10-02T09:19:58.579Z,4.30
2018-10-02T09:22:27.786Z,3.87
2018-10-02T09:24:57.050Z,4.45
2018-10-02T09:27:26.286Z,3.77
2018-10-02T09:30:00.532Z,3.97
2018-10-02T09:32:34.811Z,3.90
2018-10-02T09:35:09.178Z,3.75
2018-10-02T09:37:43.541Z,3.05
2018-10-02T09:40:17.855Z,3.70
2018-10-02T09:42:52.197Z,2.90
2018-10-02T09:45:21.958Z,2.98
2018-10-02T09:47:51.121Z,3.33
2018-10-02T09:50:20.341Z,3.05
2018-10-02T09:52:49.599Z,3.08
2018-10-02T09:55:18.695Z,3.27
2018-10-02T09:57:47.888Z,3.60
2018-10-02T10:00:21.992Z,3.05
2018-10-02T10:02:56.614Z,3.00
2018-10-02T10:05:25.726Z,3.50
2018-10-02T10:07:55.100Z,2.83
2018-10-02T10:10:24.221Z,3.40
2018-10-02T10:12:53.445Z,2.77
2018-10-02T10:15:22.898Z,2.87
2018-10-02T10:17:52.226Z,2.98
2018-10-02T10:20:21.607Z,3.00
2018-10-02T10:22:50.763Z,2.70
2018-10-02T10:25:20.014Z,2.58
2018-10-02T10:27:49.424Z,2.90
2018-10-02T10:30:18.589Z,2.77
2018-10-02T10:32:47.923Z,2.47
2018-10-02T10:35:17.292Z,2.80
2018-10-02T10:37:46.652Z,2.55
2018-10-02T10:40:15.922Z,2.40
2018-10-02T10:42:45.095Z,2.80
2018-10-02T10:45:14.329Z,2.55
2018-10-02T10:47:43.506Z,2.30
2018-10-02T10:50:12.819Z,2.42
2018-10-02T10:52:42.244Z,2.47
2018-10-02T10:55:20.023Z,2.30
2018-10-02T10:57:49.960Z,2.50
2018-10-02T11:00:19.228Z,2.30
2018-10-02T11:02:48.581Z,2.53
2018-10-02T11:05:18.095Z,2.35
2018-10-02T11:07:47.196Z,2.33
2018-10-02T11:10:18.075Z,2.83
2018-10-02T11:12:47.263Z,2.45
2018-10-02T11:15:17.220Z,2.35
2018-10-02T11:17:46.376Z,2.33
2018-10-02T11:20:19.364Z,2.33
2018-10-02T11:22:48.663Z,2.20
2018-10-02T11:25:17.978Z,2.33
2018-10-02T11:27:47.363Z,2.60
2018-10-02T11:30:16.644Z,2.35
2018-10-02T11:32:45.754Z,2.58
2018-10-02T11:35:15.020Z,2.58
2018-10-02T11:37:44.574Z,2.58
2018-10-02T11:40:13.962Z,2.42
2018-10-02T11:42:43.262Z,2.40
2018-10-02T11:45:12.577Z,2.77
2018-10-02T11:47:41.740Z,2.55
2018-10-02T11:50:11.072Z,2.58
2018-10-02T11:52:40.232Z,3.00
2018-10-02T11:55:09.413Z,2.25
2018-10-02T11:57:38.546Z,2.62
2018-10-02T12:00:08.479Z,2.55
2018-10-02T12:02:37.785Z,2.50
2018-10-02T12:05:07.080Z,2.87
2018-10-02T12:07:36.139Z,2.50
2018-10-02T12:10:05.368Z,2.60
2018-10-02T12:12:34.431Z,2.30
2018-10-02T12:15:03.582Z,2.12
2018-10-02T12:17:32.638Z,2.27
2018-10-02T12:20:01.926Z,2.10
2018-10-02T12:22:31.156Z,2.50
2018-10-02T12:25:00.319Z,1.90
2018-10-02T12:27:29.622Z,1.95
2018-10-02T12:29:59.007Z,1.90
2018-10-02T12:32:28.440Z,2.20
2018-10-02T12:34:57.719Z,2.00
2018-10-02T12:37:26.868Z,2.33
2018-10-02T12:39:56.011Z,2.50
2018-10-02T12:42:25.130Z,2.30
2018-10-02T12:44:54.328Z,2.10
2018-10-02T12:47:23.612Z,2.27
2018-10-02T12:49:52.723Z,2.37
2018-10-02T12:52:22.177Z,1.90
2018-10-02T12:54:51.533Z,2.10
2018-10-02T12:57:20.691Z,2.30
2018-10-02T12:59:49.940Z,2.30
2018-10-02T13:02:19.100Z,2.30
2018-10-02T13:04:48.322Z,2.27
2018-10-02T13:07:17.582Z,2.40
2018-10-02T13:09:46.811Z,2.50
2018-10-02T13:12:16.080Z,2.15
2018-10-02T13:14:45.212Z,2.03
2018-10-02T13:17:14.510Z,2.02
2018-10-02T13:19:43.776Z,2.12
2018-10-02T13:22:12.999Z,2.22
2018-10-02T13:24:42.177Z,2.42
2018-10-02T13:27:11.456Z,2.37
2018-10-02T13:29:40.676Z,2.22
2018-10-02T13:32:09.810Z,2.37
2018-10-02T13:34:39.081Z,2.33
2018-10-02T13:37:08.306Z,2.37
2018-10-02T13:39:37.552Z,1.98
2018-10-02T13:42:06.762Z,2.13
2018-10-02T13:44:36.030Z,2.15
2018-10-02T13:47:05.257Z,2.20
2018-10-02T13:49:34.491Z,2.00
2018-10-02T13:52:03.967Z,2.20
2018-10-02T13:54:33.187Z,1.93
2018-10-02T13:57:02.584Z,2.15
2018-10-02T13:59:31.982Z,2.17
2018-10-02T14:02:01.263Z,2.00
2018-10-02T14:04:30.594Z,1.80
2018-10-02T14:06:59.758Z,1.98
2018-10-02T14:09:29.170Z,2.40
2018-10-02T14:11:58.405Z,2.22
2018-10-02T14:14:27.534Z,2.08
2018-10-02T14:16:56.690Z,1.98
2018-10-02T14:19:25.850Z,2.22
2018-10-02T14:21:54.864Z,2.10
2018-10-02T14:24:24.039Z,2.12
2018-10-02T14:26:53.152Z,2.50
2018-10-02T14:29:22.439Z,2.30
2018-10-02T14:31:51.759Z,2.30
2018-10-02T14:34:21.032Z,2.10
2018-10-02T14:36:50.252Z,2.30
2018-10-02T14:39:19.425Z,2.40
2018-10-02T14:41:48.553Z,2.30
2018-10-02T14:44:17.996Z,2.30
2018-10-02T14:46:47.043Z,1.98
2018-10-02T14:49:16.361Z,1.95
2018-10-02T14:51:45.611Z,2.12
2018-10-02T14:54:14.640Z,2.00
2018-10-02T14:56:44.125Z,2.08
2018-10-02T14:59:13.401Z,2.10
2018-10-02T15:01:42.715Z,2.10
2018-10-02T15:04:12.048Z,1.80
2018-10-02T15:06:41.123Z,1.90
2018-10-02T15:09:10.651Z,2.75
2018-10-02T15:11:39.914Z,2.20
2018-10-02T15:14:09.142Z,2.25
2018-10-02T15:16:38.446Z,2.15
2018-10-02T15:19:07.641Z,1.90
2018-10-02T15:21:36.807Z,2.20
2018-10-02T15:24:05.978Z,1.90
2018-10-02T15:26:35.075Z,2.22
2018-10-02T15:29:04.325Z,2.15
2018-10-02T15:31:33.633Z,2.20
2018-10-02T15:34:03.238Z,2.23
2018-10-02T15:36:32.496Z,2.17
2018-10-02T15:39:01.744Z,2.30
2018-10-02T15:41:30.995Z,2.25
2018-10-02T15:44:00.235Z,2.20
2018-10-02T15:46:29.376Z,2.30
2018-10-02T15:48:58.523Z,2.35
2018-10-02T15:51:27.690Z,2.72
2018-10-02T15:53:56.894Z,2.20
2018-10-02T15:56:26.415Z,2.08
2018-10-02T15:58:55.684Z,2.73
2018-10-02T16:01:24.852Z,2.17
2018-10-02T16:03:54.185Z,2.13
2018-10-02T16:06:23.315Z,2.30
2018-10-02T16:08:52.376Z,2.40
2018-10-02T16:11:21.630Z,2.35
2018-10-02T16:13:50.783Z,2.10
2018-10-02T16:16:20.009Z,2.20
2018-10-02T16:18:49.165Z,2.30
2018-10-02T16:21:18.290Z,2.30
2018-10-02T16:23:47.836Z,2.50
2018-10-02T16:26:17.138Z,2.50
2018-10-02T16:28:46.395Z,3.12
2018-10-02T16:31:15.693Z,2.40
2018-10-02T16:33:44.988Z,2.85
2018-10-02T16:36:14.195Z,2.95
2018-10-02T16:38:43.358Z,2.92
2018-10-02T16:41:12.582Z,2.83
2018-10-02T16:43:41.756Z,2.70
2018-10-02T16:46:10.880Z,3.20
2018-10-02T16:48:40.051Z,2.90
2018-10-02T16:51:09.265Z,2.80
2018-10-02T16:53:38.640Z,3.22
2018-10-02T16:56:08.079Z,3.00
2018-10-02T16:58:37.241Z,3.08
2018-10-02T17:01:06.475Z,3.02
2018-10-02T17:03:35.751Z,3.10
2018-10-02T17:06:04.964Z,3.25
2018-10-02T17:08:34.148Z,3.47
2018-10-02T17:11:03.236Z,2.95
2018-10-02T17:13:32.424Z,3.12
2018-10-02T17:16:01.668Z,3.30
2018-10-02T17:18:30.926Z,3.67
2018-10-02T17:21:00.038Z,3.43
2018-10-02T17:23:29.214Z,3.70
2018-10-02T17:25:58.346Z,3.77
2018-10-02T17:28:27.509Z,3.58
2018-10-02T17:30:56.647Z,3.45
2018-10-02T17:33:25.802Z,3.37
2018-10-02T17:35:55.028Z,3.67
2018-10-02T17:38:24.199Z,3.70
2018-10-02T17:40:53.519Z,3.60
2018-10-02T17:43:22.799Z,4.80
2018-10-02T17:45:52.021Z,4.10
2018-10-02T17:48:21.303Z,3.35
2018-10-02T17:50:50.512Z,3.37
2018-10-02T17:53:19.837Z,2.92
2018-10-02T17:55:49.103Z,3.33
2018-10-02T17:58:18.956Z,2.92
2018-10-02T18:00:48.234Z,3.40
2018-10-02T18:03:17.631Z,3.30
2018-10-02T18:05:46.931Z,3.00
2018-10-02T18:08:16.027Z,2.95
2018-10-02T18:10:45.210Z,2.83
2018-10-02T18:13:14.336Z,2.85
2018-10-02T18:15:43.659Z,2.90
2018-10-02T18:18:13.464Z,2.80
2018-10-02T18:20:42.731Z,3.08
2018-10-02T18:23:12.123Z,2.80
2018-10-02T18:25:41.336Z,2.47
2018-10-02T18:28:10.822Z,2.42
2018-10-02T18:30:40.335Z,2.95
2018-10-02T18:33:09.671Z,3.00
2018-10-02T18:35:38.851Z,2.35
2018-10-02T18:38:08.361Z,2.62
2018-10-02T18:40:37.430Z,2.70
2018-10-02T18:43:06.573Z,2.58
2018-10-02T18:45:35.649Z,2.50
2018-10-02T18:48:04.698Z,2.40
2018-10-02T18:50:34.028Z,2.62
2018-10-02T18:53:03.295Z,2.47
2018-10-02T18:55:32.621Z,3.08
2018-10-02T18:58:01.827Z,2.60
2018-10-02T19:00:30.988Z,2.33
2018-10-02T19:03:00.214Z,2.90
2018-10-02T19:05:29.664Z,2.25
2018-10-02T19:07:58.785Z,2.52
2018-10-02T19:10:27.885Z,2.35
2018-10-02T19:12:57.082Z,2.80
2018-10-02T19:15:26.412Z,2.33
2018-10-02T19:17:55.705Z,3.00
2018-10-02T19:20:29.955Z,2.90
2018-10-02T19:22:59.159Z,2.60
2018-10-02T19:25:33.504Z,2.55
2018-10-02T19:28:02.644Z,2.30
2018-10-02T19:30:37.462Z,2.77
2018-10-02T19:33:06.760Z,2.80
2018-10-02T19:35:35.940Z,2.58
2018-10-02T19:38:10.137Z,2.30
2018-10-02T19:40:39.272Z,2.20
2018-10-02T19:43:08.433Z,1.80
2018-10-02T19:45:42.639Z,1.98
2018-10-02T19:48:11.852Z,1.90
2018-10-02T19:50:41.074Z,1.70
2018-10-02T19:53:10.386Z,1.75
2018-10-02T19:55:39.583Z,1.50
2018-10-02T19:58:08.860Z,1.82
2018-10-02T20:00:38.156Z,1.80
2018-10-02T20:03:07.324Z,1.60
2018-10-02T20:05:36.582Z,1.70
2018-10-02T20:08:06.355Z,1.90
2018-10-02T20:10:35.575Z,1.37
2018-10-02T20:13:04.859Z,1.45
2018-10-02T20:15:33.951Z,1.40
2018-10-02T20:18:03.235Z,1.30
2018-10-02T20:20:32.470Z,1.75
2018-10-02T20:23:01.746Z,2.02
2018-10-02T20:25:31.166Z,2.20
2018-10-02T20:28:00.341Z,1.90
2018-10-02T20:30:29.667Z,1.87
2018-10-02T20:32:58.833Z,2.00
2018-10-02T20:35:27.992Z,1.90
2018-10-02T20:37:57.240Z,1.95
2018-10-02T20:40:26.281Z,2.20
2018-10-02T20:42:55.428Z,2.10
2018-10-02T20:45:25.020Z,2.00
2018-10-02T20:47:54.318Z,2.20
2018-10-02T20:50:24.051Z,2.20
2018-10-02T20:52:53.631Z,2.22
2018-10-02T20:55:22.951Z,2.30
2018-10-02T20:57:52.272Z,2.40
2018-10-02T21:00:21.549Z,2.40
2018-10-02T21:02:50.774Z,2.35
2018-10-02T21:05:20.048Z,2.10
2018-10-02T21:07:49.158Z,2.37
2018-10-02T21:10:18.433Z,2.42
2018-10-02T21:12:47.571Z,2.60
2018-10-02T21:15:16.967Z,2.17
2018-10-02T21:17:46.267Z,2.30
2018-10-02T21:20:15.543Z,2.45
2018-10-02T21:22:44.654Z,2.30
2018-10-02T21:25:13.922Z,2.70
2018-10-02T21:27:43.051Z,2.40
2018-10-02T21:30:12.246Z,2.60
2018-10-02T21:32:41.546Z,3.10
2018-10-02T21:35:10.924Z,2.73
2018-10-02T21:37:40.243Z,2.80
2018-10-02T21:40:09.655Z,2.77
2018-10-02T21:42:38.895Z,3.00
2018-10-02T21:45:08.095Z,2.80
2018-10-02T21:47:37.264Z,2.80
2018-10-02T21:50:06.641Z,3.17
2018-10-02T21:52:36.027Z,3.95
2018-10-02T21:55:05.244Z,3.22
2018-10-02T21:57:34.614Z,3.55
2018-10-02T22:00:03.967Z,3.40
2018-10-02T22:02:33.226Z,3.42
2018-10-02T22:05:02.460Z,3.53
2018-10-02T22:07:31.643Z,3.40
2018-10-02T22:10:00.941Z,4.00
2018-10-02T22:12:30.221Z,3.65
2018-10-02T22:14:59.543Z,3.80
2018-10-02T22:17:28.812Z,4.03
2018-10-02T22:19:58.043Z,3.55
2018-10-02T22:22:27.333Z,3.80
2018-10-02T22:24:56.631Z,3.77
2018-10-02T22:27:26.007Z,3.85
2018-10-02T22:29:55.236Z,4.15
2018-10-02T22:32:24.420Z,3.90
2018-10-02T22:34:53.631Z,3.87
2018-10-02T22:37:23.005Z,3.60
2018-10-02T22:39:52.136Z,3.67
2018-10-02T22:42:21.270Z,3.87
2018-10-02T22:44:50.435Z,3.80
2018-10-02T22:47:19.692Z,3.80
2018-10-02T22:49:49.132Z,3.67
2018-10-02T22:52:18.513Z,3.47
2018-10-02T22:54:47.741Z,3.30
2018-10-02T22:57:17.019Z,3.70
2018-10-02T22:59:46.232Z,3.60
2018-10-02T23:02:15.413Z,3.45
2018-10-02T23:04:44.790Z,3.85
2018-10-02T23:07:14.112Z,4.03
2018-10-02T23:09:43.284Z,3.50
2018-10-02T23:12:12.412Z,3.80
2018-10-02T23:14:41.577Z,3.42
2018-10-02T23:17:10.818Z,3.55
2018-10-02T23:19:39.963Z,3.47
2018-10-02T23:22:09.208Z,3.30
2018-10-02T23:24:38.365Z,3.70
2018-10-02T23:27:07.498Z,3.10
2018-10-02T23:29:36.651Z,3.60
2018-10-02T23:32:05.786Z,3.33
2018-10-02T23:34:35.156Z,3.92
2018-10-02T23:37:05.390Z,3.83
2018-10-02T23:39:34.688Z,3.50
2018-10-02T23:42:04.112Z,3.45
2018-10-02T23:44:33.383Z,3.70
2018-10-02T23:47:02.708Z,3.35
2018-10-02T23:49:31.787Z,3.47
2018-10-02T23:52:00.911Z,3.40
2018-10-02T23:54:30.172Z,3.30
2018-10-02T23:56:59.394Z,3.22
2018-10-02T23:59:28.571Z,3.55
